Time;durP1;ratioP1;P1;durP2;ratioP2;P2;SDS_P1;SDS_P2;PMS_P1;PMS_P2;Temp;Humidity;BMP_temperature;BMP_pressure;BME280_temperature;BME280_humidity;BME280_pressure;Samples;Min_cycle;Max_cycle;Signal;HPM_P1;HPM_P2
2021/11/09 00:02:03;;;;;;;3.97;1.17;;;;;;;14.40;34.55;98108.31;5039516;28;20457;-69
2021/11/09 00:04:39;;;;;;;0.80;0.80;;;;;;;14.55;34.71;98122.16;5041016;28;20040;-69
2021/11/09 00:07:12;;;;;;;0.93;0.82;;;;;;;14.09;35.53;98105.66;5073395;28;20093;-70
2021/11/09 00:12:36;;;;;;;2.45;1.00;;;;;;;14.94;34.44;98112.91;5056926;28;20511;-69
2021/11/09 00:15:04;;;;;;;0.73;0.73;;;;;;;14.87;34.40;98112.16;5073360;28;20494;-69
2021/11/09 00:17:30;;;;;;;1.52;1.00;;;;;;;14.71;34.37;98112.75;5056903;28;20135;-69
2021/11/09 00:19:56;;;;;;;0.75;0.75;;;;;;;14.37;34.70;98113.28;5040042;28;20524;-68
2021/11/09 00:22:23;;;;;;;1.92;0.80;;;;;;;14.34;35.10;98092.34;5024014;28;20044;-70
2021/11/09 00:24:50;;;;;;;2.00;0.88;;;;;;;14.37;35.14;98119.44;5056645;28;20089;-70
2021/11/09 00:27:16;;;;;;;0.93;0.75;;;;;;;13.68;36.03;98126.69;5056675;28;20044;-71
2021/11/09 00:29:42;;;;;;;3.25;1.00;;;;;;;14.42;35.52;98124.91;5023741;28;20044;-71
2021/11/09 00:32:09;;;;;;;1.23;1.05;;;;;;;14.51;34.79;98114.78;5039917;28;20036;-71
2021/11/09 00:34:35;;;;;;;1.95;1.00;;;;;;;14.63;34.98;98126.38;5023461;28;20109;-71
2021/11/09 00:37:06;;;;;;;1.10;1.00;;;;;;;14.13;35.58;98114.06;5056375;28;20126;-71
2021/11/09 00:39:32;;;;;;;0.90;0.90;;;;;;;14.02;35.73;98128.09;5072944;28;20044;-71
2021/11/09 00:41:58;;;;;;;1.60;0.90;;;;;;;14.11;35.69;98124.13;5056093;28;20040;-71
2021/11/09 00:44:25;;;;;;;0.80;0.80;;;;;;;14.81;34.60;98135.25;5056397;28;20089;-72
2021/11/09 00:46:51;;;;;;;0.88;0.88;;;;;;;14.89;34.22;98140.31;5039901;28;20134;-72
2021/11/09 00:49:18;;;;;;;0.80;0.80;;;;;;;14.29;34.93;98133.06;5072947;28;20056;-71
2021/11/09 00:51:44;;;;;;;0.70;0.70;;;;;;;14.24;34.91;98132.06;5057019;28;20044;-71
2021/11/09 00:54:11;;;;;;;1.55;0.80;;;;;;;14.49;35.05;98136.38;5073174;28;20052;-71
2021/11/09 00:56:37;;;;;;;1.10;0.80;;;;;;;14.60;34.75;98141.00;5039671;28;20181;-71
2021/11/09 00:59:04;;;;;;;0.70;0.70;;;;;;;14.65;34.77;98125.13;5039418;28;20056;-71
2021/11/09 01:01:30;;;;;;;0.88;0.88;;;;;;;13.99;35.93;98137.34;5039518;28;20054;-71
2021/11/09 01:03:56;;;;;;;1.15;0.90;;;;;;;13.87;35.98;98148.94;5056244;28;20051;-69
2021/11/09 01:06:22;;;;;;;1.42;0.95;;;;;;;14.12;35.81;98137.25;5056041;28;20055;-69
2021/11/09 01:08:48;;;;;;;1.10;0.80;;;;;;;14.03;36.10;98125.22;5039143;28;20055;-69
2021/11/09 01:11:14;;;;;;;1.42;1.05;;;;;;;14.14;36.07;98147.72;5056221;28;20035;-70
2021/11/09 01:13:40;;;;;;;3.63;1.05;;;;;;;14.14;36.49;98153.06;5055924;28;20132;-71
2021/11/09 01:16:06;;;;;;;1.15;1.05;;;;;;;14.19;36.63;98146.03;5039079;28;20040;-70
2021/11/09 01:18:39;;;;;;;1.23;1.10;;;;;;;14.45;36.45;98166.41;5037946;28;20047;-71
2021/11/09 01:21:05;;;;;;;2.92;1.00;;;;;;;13.95;37.06;98148.66;5036993;28;20093;-71
2021/11/09 01:23:31;;;;;;;1.35;1.10;;;;;;;14.31;36.86;98148.88;5053605;28;20654;-71
2021/11/09 01:25:58;;;;;;;1.10;1.00;;;;;;;14.07;37.09;98150.44;5088238;28;20043;-72
2021/11/09 01:28:24;;;;;;;1.27;1.00;;;;;;;14.30;36.76;98160.59;5070099;28;20074;-71
2021/11/09 01:30:50;;;;;;;1.35;1.00;;;;;;;14.48;36.35;98171.31;5037068;28;20576;-70
2021/11/09 01:33:17;;;;;;;1.00;1.00;;;;;;;14.09;37.11;98164.41;5054367;28;20044;-71
2021/11/09 01:35:43;;;;;;;3.42;1.38;;;;;;;14.21;36.99;98172.50;5054797;28;20420;-70
2021/11/09 01:38:09;;;;;;;1.20;1.10;;;;;;;14.29;37.27;98169.63;5038760;28;20131;-69
2021/11/09 01:40:37;;;;;;;1.30;1.20;;;;;;;14.53;37.02;98176.84;5072093;28;20082;-70
2021/11/09 01:43:05;;;;;;;1.10;1.00;;;;;;;14.42;37.25;98174.88;5072148;28;20040;-70
2021/11/09 01:45:31;;;;;;;1.20;1.10;;;;;;;14.01;37.83;98185.19;5055505;28;20081;-70
2021/11/09 01:47:57;;;;;;;1.65;1.40;;;;;;;14.10;37.63;98184.72;5054949;28;20081;-73
2021/11/09 01:50:29;;;;;;;1.33;1.20;;;;;;;14.58;37.20;98172.47;5038948;28;20082;-70
2021/11/09 01:52:56;;;;;;;1.77;1.30;;;;;;;14.51;36.94;98163.69;5090279;28;20087;-70
2021/11/09 01:55:24;;;;;;;1.70;1.25;;;;;;;14.55;37.14;98196.13;5055021;28;20036;-70
2021/11/09 01:57:50;;;;;;;1.20;1.10;;;;;;;14.29;37.25;98183.78;5038473;28;20089;-70
2021/11/09 02:00:22;;;;;;;1.35;1.25;;;;;;;14.49;37.12;98167.59;5055469;28;20459;-70
2021/11/09 02:02:49;;;;;;;1.55;1.08;;;;;;;14.56;37.06;98208.47;5038845;28;20048;-71
2021/11/09 02:05:15;;;;;;;3.38;1.98;;;;;;;14.60;37.03;98196.28;5038791;28;20036;-71
2021/11/09 02:07:47;;;;;;;1.30;1.20;;;;;;;15.09;36.27;98199.75;5054968;28;20560;-69
2021/11/09 02:10:14;;;;;;;1.00;1.00;;;;;;;14.89;36.45;98200.97;5055095;28;20077;-70
2021/11/09 02:12:39;;;;;;;1.23;1.13;;;;;;;14.70;36.49;98205.44;5038801;28;20368;-71
2021/11/09 02:15:07;;;;;;;1.13;1.10;;;;;;;14.85;36.20;98213.16;5055301;28;20507;-70
2021/11/09 02:17:36;;;;;;;1.40;1.00;;;;;;;15.26;36.06;98218.69;5038168;28;20051;-70
2021/11/09 02:20:02;;;;;;;1.17;1.10;;;;;;;14.79;35.98;98222.84;5054328;28;20048;-71
2021/11/09 02:22:28;;;;;;;1.20;1.10;;;;;;;14.84;36.12;98233.69;5020710;28;20101;-69
2021/11/09 02:24:54;;;;;;;4.47;1.35;;;;;;;14.90;36.01;98242.69;5054324;28;20055;-68
2021/11/09 02:27:20;;;;;;;1.95;1.20;;;;;;;14.80;36.15;98237.03;5074379;28;20106;-65
2021/11/09 02:29:46;;;;;;;1.15;1.10;;;;;;;14.95;36.00;98240.19;5074824;28;20083;-64
2021/11/09 02:32:12;;;;;;;2.20;1.50;;;;;;;15.01;35.70;98260.69;5058848;28;20101;-64
2021/11/09 02:34:37;;;;;;;1.42;1.33;;;;;;;15.04;35.67;98268.28;5075465;28;20397;-64
2021/11/09 02:37:03;;;;;;;1.65;1.33;;;;;;;15.14;35.14;98268.59;5093448;28;20044;-64
2021/11/09 02:39:29;;;;;;;1.02;0.85;;;;;;;15.06;34.54;98268.88;5042053;28;20048;-66
2021/11/09 02:41:55;;;;;;;0.73;0.70;;;;;;;15.01;34.39;98274.06;5093131;28;20092;-65
2021/11/09 02:44:24;;;;;;;2.83;0.73;;;;;;;14.91;34.16;98285.25;5075583;28;20044;-61
2021/11/09 02:46:54;;;;;;;2.63;1.58;;;;;;;14.69;34.23;98267.13;5093167;28;20048;-66
2021/11/09 02:49:35;;;;;;;4.82;1.20;;;;;;;14.77;34.32;98290.91;5075230;28;20085;-64
2021/11/09 02:52:06;;;;;;;0.75;0.70;;;;;;;14.71;34.37;98307.81;5077219;28;20101;-63
2021/11/09 02:54:36;;;;;;;0.55;0.55;;;;;;;14.69;34.19;98302.69;5074750;28;20226;-64
2021/11/09 02:57:09;;;;;;;1.48;0.63;;;;;;;14.74;34.49;98278.81;5092701;28;20551;-64
2021/11/09 02:59:59;;;;;;;0.70;0.70;;;;;;;14.52;33.87;98287.38;5092659;28;20044;-65
2021/11/09 03:05:01;;;;;;;1.25;0.77;;;;;;;14.10;34.52;98262.13;5092822;28;20177;-66
2021/11/09 03:07:34;;;;;;;0.70;0.70;;;;;;;14.63;34.18;98334.78;5092680;28;20384;-63
2021/11/09 03:10:11;;;;;;;1.13;0.60;;;;;;;14.56;34.25;98350.06;5074235;28;20036;-65
2021/11/09 03:12:40;;;;;;;0.82;0.70;;;;;;;14.85;34.40;98357.47;5058709;28;20092;-65
2021/11/09 03:15:09;;;;;;;1.20;0.70;;;;;;;14.82;34.39;98358.72;5057287;28;20460;-64
2021/11/09 03:17:44;;;;;;;2.05;1.88;;;;;;;14.54;34.12;98373.50;5040906;28;20040;-66
2021/11/09 03:20:16;;;;;;;2.92;0.80;;;;;;;14.73;34.05;98365.34;5074937;28;20039;-64
2021/11/09 03:44:52;;;;;;;2.60;0.82;;;;;;;13.84;34.75;98425.03;5073437;28;20044;-67
2021/11/09 03:47:20;;;;;;;0.80;0.75;;;;;;;13.78;34.82;98433.88;5056790;28;20051;-67
2021/11/09 03:49:47;;;;;;;2.78;0.80;;;;;;;13.74;35.02;98446.00;5073570;28;20547;-65
2021/11/09 03:52:21;;;;;;;0.73;0.73;;;;;;;14.16;34.80;98450.03;5040148;28;20055;-68
2021/11/09 03:54:52;;;;;;;0.80;0.80;;;;;;;14.12;34.97;98463.00;5091410;28;20039;-65
2021/11/09 03:57:25;;;;;;;0.88;0.80;;;;;;;13.61;34.76;98435.34;5057171;28;20466;-66
2021/11/09 04:05:08;;;;;;;1.05;0.80;;;;;;;13.56;35.40;98486.63;5056236;28;20058;-65
2021/11/09 04:07:40;;;;;;;5.25;0.90;;;;;;;13.59;35.57;98486.22;5056041;28;20152;-65
2021/11/09 04:15:44;;;;;;;7.53;2.63;;;;;;;13.52;35.67;98506.75;5090877;28;20050;-65
2021/11/09 04:31:56;;;;;;;1.15;0.77;;;;;;;13.19;35.72;98534.41;5075904;28;20036;-68
2021/11/09 04:48:18;;;;;;;1.07;0.97;;;;;;;13.14;36.12;98612.31;5062773;28;20047;-65
2021/11/09 05:09:09;;;;;;;0.90;0.90;;;;;;;13.40;35.09;98648.91;5071051;28;20059;-66
2021/11/09 05:11:37;;;;;;;1.33;0.85;;;;;;;13.15;34.90;98672.59;5089198;28;20096;-66
2021/11/09 05:14:07;;;;;;;1.17;0.90;;;;;;;13.35;34.71;98672.69;5071062;28;20044;-66
2021/11/09 05:16:34;;;;;;;2.08;1.15;;;;;;;12.96;34.74;98686.59;5088485;28;20048;-66
2021/11/09 05:19:00;;;;;;;2.97;1.17;;;;;;;12.92;34.76;98697.84;5070908;28;20048;-67
2021/11/09 05:21:26;;;;;;;1.30;1.17;;;;;;;12.84;34.80;98704.16;5071495;28;20064;-66
2021/11/09 05:23:52;;;;;;;2.50;1.30;;;;;;;12.95;34.66;98716.94;5054444;28;20124;-66
2021/11/09 05:26:18;;;;;;;1.33;1.10;;;;;;;13.04;34.75;98721.13;5070625;28;20043;-67
2021/11/09 05:28:45;;;;;;;1.38;1.20;;;;;;;12.89;35.02;98724.88;5088999;28;20044;-66
2021/11/09 05:31:13;;;;;;;1.55;1.40;;;;;;;13.18;35.17;98733.53;5054291;28;20052;-66
2021/11/09 05:33:39;;;;;;;2.47;1.53;;;;;;;12.93;35.36;98737.63;5088606;28;20036;-65
2021/11/09 05:36:07;;;;;;;2.05;1.70;;;;;;;13.10;34.92;98744.34;5088409;28;20036;-65
2021/11/09 05:38:44;;;;;;;4.68;1.80;;;;;;;13.04;34.76;98758.44;5053872;28;20052;-68
2021/11/09 05:41:11;;;;;;;1.90;1.80;;;;;;;13.00;34.82;98741.22;5070577;28;20040;-67
2021/11/09 05:43:37;;;;;;;5.17;2.03;;;;;;;13.00;34.79;98737.72;5089174;28;20139;-68
2021/11/09 05:46:05;;;;;;;3.87;2.07;;;;;;;13.04;33.47;98761.09;5070606;28;20040;-67
2021/11/09 05:48:31;;;;;;;3.25;2.30;;;;;;;13.18;33.68;98786.84;5070687;28;20048;-71
2021/11/09 05:50:57;;;;;;;5.37;2.40;;;;;;;13.07;33.39;98791.88;5089206;28;20040;-68
2021/11/09 05:53:23;;;;;;;2.87;2.43;;;;;;;13.18;33.25;98805.50;5089184;28;20040;-67
2021/11/09 05:55:49;;;;;;;3.40;2.55;;;;;;;13.13;33.16;98807.91;5088845;28;20123;-68
2021/11/09 05:58:15;;;;;;;5.80;3.13;;;;;;;12.98;33.17;98793.84;5070862;28;20127;-67
2021/11/09 06:00:41;;;;;;;4.22;2.70;;;;;;;13.23;32.92;98823.59;5055872;28;20383;-67
2021/11/09 06:03:07;;;;;;;6.70;2.78;;;;;;;13.10;32.89;98820.84;5074899;28;20040;-68
2021/11/09 06:05:33;;;;;;;6.10;2.70;;;;;;;13.24;33.14;98838.56;5092989;28;20043;-68
2021/11/09 06:07:58;;;;;;;4.40;3.00;;;;;;;13.14;32.88;98852.25;5074436;28;20381;-75
2021/11/09 06:10:24;;;;;;;3.10;2.80;;;;;;;12.98;33.04;98847.16;5041689;28;20044;-66
2021/11/09 06:12:50;;;;;;;4.60;2.88;;;;;;;13.05;33.10;98858.72;5023972;28;20085;-66
2021/11/09 06:15:16;;;;;;;4.17;3.10;;;;;;;12.82;32.97;98850.06;5074418;28;20172;-67
2021/11/09 06:17:41;;;;;;;3.83;2.87;;;;;;;12.82;32.94;98863.38;5092884;28;20078;-67
2021/11/09 06:20:08;;;;;;;8.20;3.60;;;;;;;13.09;32.39;98881.31;5074591;28;20138;-67
2021/11/09 06:22:36;;;;;;;2.87;2.50;;;;;;;13.27;32.02;98863.00;5092475;28;20044;-66
2021/11/09 06:25:03;;;;;;;3.38;2.85;;;;;;;13.04;31.97;98882.88;5074256;28;20032;-66
2021/11/09 06:27:29;;;;;;;4.67;2.93;;;;;;;12.82;31.98;98879.38;5074153;28;20047;-67
2021/11/09 06:29:55;;;;;;;5.95;2.80;;;;;;;12.67;31.86;98877.81;5057997;28;20111;-66
2021/11/09 06:32:20;;;;;;;6.05;2.78;;;;;;;12.96;31.41;98893.69;5057426;28;20092;-67
2021/11/09 06:34:46;;;;;;;6.38;3.22;;;;;;;12.91;31.17;98894.25;5074246;28;20056;-66
2021/11/09 06:37:12;;;;;;;6.32;3.00;;;;;;;13.06;31.19;98907.53;5057487;28;20048;-67
2021/11/09 06:39:38;;;;;;;3.95;2.88;;;;;;;12.92;31.19;98887.91;5073765;28;20048;-66
2021/11/09 06:42:04;;;;;;;4.38;3.10;;;;;;;13.27;31.19;98927.00;5092275;28;20048;-67
2021/11/09 06:44:30;;;;;;;7.38;3.00;;;;;;;13.15;31.35;98936.53;5074002;28;20051;-66
2021/11/09 06:46:55;;;;;;;3.58;3.10;;;;;;;13.16;31.58;98934.72;5074116;28;20412;-66
2021/11/09 06:49:21;;;;;;;4.07;3.30;;;;;;;13.32;31.73;98945.91;5073879;28;20135;-67
2021/11/09 06:51:47;;;;;;;5.47;3.20;;;;;;;13.21;31.58;98941.09;5074130;28;20513;-66
2021/11/09 06:54:13;;;;;;;5.68;3.55;;;;;;;13.17;31.56;98961.19;5073613;28;20048;-66
2021/11/09 06:56:40;;;;;;;3.80;2.97;;;;;;;13.16;31.09;98961.38;5073714;28;20036;-67
2021/11/09 06:59:07;;;;;;;4.13;2.70;;;;;;;13.07;30.85;98979.31;5056783;28;20153;-66
2021/11/09 07:01:33;;;;;;;3.05;2.58;;;;;;;12.92;30.60;98981.19;5073850;28;20036;-66
2021/11/09 07:03:59;;;;;;;4.07;2.78;;;;;;;12.73;30.57;98992.44;5073492;28;20052;-69
2021/11/09 07:06:25;;;;;;;4.40;2.92;;;;;;;12.65;30.19;98992.56;5092229;28;20459;-66
2021/11/09 07:08:51;;;;;;;5.20;2.85;;;;;;;12.66;30.79;99002.19;5091667;28;20055;-66
2021/11/09 07:11:16;;;;;;;3.60;2.60;;;;;;;12.73;30.59;99003.09;5072732;28;20158;-67
2021/11/09 07:13:43;;;;;;;4.88;2.83;;;;;;;12.79;30.35;99023.66;5072990;28;20189;-66
2021/11/09 07:16:10;;;;;;;3.87;2.90;;;;;;;12.96;30.56;99019.75;5056651;28;20048;-67
2021/11/09 07:18:36;;;;;;;6.07;2.85;;;;;;;12.43;30.25;99001.50;5073246;28;20036;-67
2021/11/09 07:21:02;;;;;;;6.32;2.80;;;;;;;12.62;30.37;99042.72;5091776;28;20051;-66
2021/11/09 07:23:27;;;;;;;4.70;2.60;;;;;;;12.02;30.16;98979.00;5092090;28;20048;-66
2021/11/09 07:25:53;;;;;;;3.75;2.95;;;;;;;12.49;30.57;99051.34;5073359;28;20051;-66
2021/11/09 07:28:20;;;;;;;3.17;2.43;;;;;;;12.23;30.45;99035.00;5091631;28;20032;-64
2021/11/09 07:30:57;;;;;;;3.50;2.40;;;;;;;12.49;30.21;99077.97;5091500;28;20069;-65
2021/11/09 07:33:23;;;;;;;5.40;2.17;;;;;;;12.04;29.97;99059.47;5073467;28;20044;-67
2021/11/09 07:35:48;;;;;;;5.40;2.07;;;;;;;12.13;29.87;99076.22;5056878;28;20059;-67
2021/11/09 07:38:15;;;;;;;3.80;1.97;;;;;;;11.99;29.70;99072.53;5091166;28;20043;-65
2021/11/09 07:40:42;;;;;;;5.23;1.87;;;;;;;12.37;29.65;99108.75;5056233;28;20051;-69
2021/11/09 07:43:08;;;;;;;2.83;1.70;;;;;;;12.48;29.25;99110.13;5091842;28;20062;-68
2021/11/09 07:45:35;;;;;;;1.83;1.60;;;;;;;12.39;29.14;99100.56;5091667;28;20048;-68
2021/11/09 07:48:01;;;;;;;4.73;1.70;;;;;;;12.36;29.06;99128.38;5056951;28;20070;-69
2021/11/09 07:50:29;;;;;;;3.63;1.77;;;;;;;12.48;29.15;99134.09;5057340;28;20040;-68
2021/11/09 07:52:58;;;;;;;3.00;1.80;;;;;;;12.45;29.14;99140.63;5091417;28;20044;-67
2021/11/09 07:55:25;;;;;;;2.40;1.73;;;;;;;12.57;29.06;99147.16;5073101;28;20044;-67
2021/11/09 07:57:56;;;;;;;1.93;1.70;;;;;;;12.50;29.36;99140.88;5090917;28;20040;-67
2021/11/09 08:00:26;;;;;;;2.28;1.65;;;;;;;12.63;29.45;99157.09;5090897;28;20044;-66
2021/11/09 08:05:30;;;;;;;5.53;1.90;;;;;;;12.17;29.12;99170.66;5090868;28;20094;-67
2021/11/09 08:08:03;;;;;;;3.70;2.17;;;;;;;12.12;29.13;99171.19;5091139;28;20062;-66
2021/11/09 08:10:29;;;;;;;6.03;1.90;;;;;;;12.06;29.34;99173.75;5074152;28;20048;-70
2021/11/09 08:12:55;;;;;;;9.07;2.97;;;;;;;11.82;29.25;99172.13;5055734;28;20043;-68
2021/11/09 08:15:21;;;;;;;4.03;1.90;;;;;;;11.89;29.37;99205.81;5056424;28;20673;-68
2021/11/09 08:17:46;;;;;;;4.40;1.80;;;;;;;11.77;29.31;99198.41;5089982;28;20115;-68
2021/11/09 08:20:13;;;;;;;3.83;1.90;;;;;;;11.85;29.11;99209.00;5090757;28;20100;-67
2021/11/09 08:22:38;;;;;;;1.97;1.60;;;;;;;12.00;28.81;99217.03;5089614;28;20496;-68
2021/11/09 08:25:05;;;;;;;2.17;1.80;;;;;;;12.09;28.62;99230.13;5090441;28;20047;-67
2021/11/09 08:27:30;;;;;;;3.47;1.80;;;;;;;11.87;28.53;99221.13;5039130;28;20036;-66
2021/11/09 08:29:58;;;;;;;4.00;1.70;;;;;;;11.88;28.75;99232.59;5090710;28;20047;-68
2021/11/09 08:32:24;;;;;;;5.60;1.63;;;;;;;11.87;28.99;99242.41;5090535;28;20081;-69
2021/11/09 08:34:50;;;;;;;2.17;1.60;;;;;;;11.93;28.74;99248.88;5090218;28;20051;-69
2021/11/09 08:37:16;;;;;;;3.00;1.80;;;;;;;11.65;28.48;99226.44;5090450;28;20048;-68
2021/11/09 08:39:43;;;;;;;3.67;1.70;;;;;;;12.01;28.26;99263.97;5055476;28;20078;-68
2021/11/09 08:44:42;;;;;;;1.73;1.47;;;;;;;12.27;27.98;99277.75;5072132;28;20066;-69
2021/11/09 08:47:08;;;;;;;6.37;2.10;;;;;;;11.86;28.00;99285.16;5072666;28;20036;-69
2021/11/09 08:49:34;;;;;;;3.33;1.67;;;;;;;11.56;28.33;99252.19;5090486;28;20044;-69
2021/11/09 08:52:05;;;;;;;3.00;1.50;;;;;;;12.10;28.04;99286.88;5072180;28;20050;-69
2021/11/09 08:54:36;;;;;;;3.20;1.63;;;;;;;11.71;27.84;99293.06;5055972;28;20076;-68
2021/11/09 09:05:27;;;;;;;5.45;1.58;;;;;;;12.35;27.28;99323.78;5057469;28;20385;-69
2021/11/09 09:07:53;;;;;;;4.27;1.43;;;;;;;12.15;27.53;99330.56;5090310;28;20409;-69
2021/11/09 09:10:19;;;;;;;2.30;1.23;;;;;;;12.20;27.31;99332.72;5055131;28;20068;-67
2021/11/09 09:12:47;;;;;;;4.33;2.23;;;;;;;12.40;27.03;99331.25;5089069;28;20619;-67
2021/11/09 09:15:15;;;;;;;2.67;1.40;;;;;;;12.37;27.00;99326.28;5071530;28;20052;-68
2021/11/09 09:17:41;;;;;;;4.23;1.90;;;;;;;12.28;27.10;99336.16;5071608;28;20040;-68
2021/11/09 09:33:45;;;;;;;2.90;1.33;;;;;;;16.02;21.83;99363.50;5072178;28;20047;-67
2021/11/09 09:57:25;;;;;;;3.10;1.50;;;;;;;30.81;8.88;99405.53;5054172;28;20051;-70
2021/11/09 09:59:54;;;;;;;5.57;1.85;;;;;;;32.05;8.24;99401.91;5071146;28;20055;-68
2021/11/09 10:02:27;;;;;;;4.68;1.40;;;;;;;33.73;7.64;99399.56;5071343;28;20040;-69
2021/11/09 10:05:07;;;;;;;4.53;1.20;;;;;;;35.03;6.16;99421.84;5070428;28;20139;-68
2021/11/09 10:07:34;;;;;;;7.77;1.63;;;;;;;34.33;6.48;99407.31;5053148;28;20095;-69
2021/11/09 10:10:24;;;;;;;4.07;1.20;;;;;;;34.70;6.28;99409.56;5070836;28;20531;-70
2021/11/09 10:13:04;;;;;;;4.15;1.52;;;;;;;35.26;5.50;99410.31;5058836;28;20052;-68
2021/11/09 10:15:32;;;;;;;6.60;1.10;;;;;;;35.13;5.26;99416.81;5070945;28;20098;-70
2021/11/09 10:18:02;;;;;;;2.88;1.20;;;;;;;34.80;5.34;99421.13;5089097;28;20082;-68
2021/11/09 10:20:40;;;;;;;7.88;1.35;;;;;;;34.88;4.80;99422.28;5088983;28;20077;-67
2021/11/09 10:23:09;;;;;;;5.50;1.60;;;;;;;35.17;5.11;99419.72;5091693;28;20048;-70
2021/11/09 10:25:36;;;;;;;6.78;2.13;;;;;;;34.93;5.36;99435.97;5070395;28;20048;-67
2021/11/09 10:28:18;;;;;;;2.20;1.30;;;;;;;35.43;4.29;99434.38;5089262;28;20048;-69
2021/11/09 10:30:50;;;;;;;6.43;1.42;;;;;;;34.54;5.08;99436.78;5087914;28;20044;-68
2021/11/09 10:33:19;;;;;;;4.55;1.30;;;;;;;33.31;5.68;99448.78;5082769;28;20177;-71
2021/11/09 10:35:46;;;;;;;5.97;1.75;;;;;;;32.59;6.39;99450.63;5049481;28;20068;-70
2021/11/09 10:38:12;;;;;;;2.25;1.20;;;;;;;31.29;6.40;99452.88;5068621;28;20049;-68
2021/11/09 10:40:44;;;;;;;5.70;1.50;;;;;;;30.99;6.48;99443.97;5071771;28;20419;-69
2021/11/09 10:43:11;;;;;;;5.13;1.40;;;;;;;30.60;7.00;99470.75;5073714;28;20084;-69
2021/11/09 10:45:38;;;;;;;3.00;1.20;;;;;;;29.53;7.60;99465.72;5067988;28;20036;-67
2021/11/09 10:48:17;;;;;;;9.18;1.58;;;;;;;29.21;7.50;99485.38;5071002;28;20044;-68
2021/11/09 10:50:46;;;;;;;2.95;1.20;;;;;;;27.56;8.63;99493.88;5071587;28;20048;-69
2021/11/09 10:53:32;;;;;;;6.25;1.90;;;;;;;27.09;8.63;99488.59;5052693;28;20056;-68
2021/11/09 10:56:22;;;;;;;2.40;1.27;;;;;;;27.73;8.74;99497.16;5055063;28;20497;-68
2021/11/09 10:59:06;;;;;;;4.63;1.58;;;;;;;27.87;8.28;99510.06;5055012;28;20047;-68
2021/11/09 11:04:32;;;;;;;6.18;1.45;;;;;;;25.44;9.74;99514.69;5076170;28;20044;-69
2021/11/09 11:07:06;;;;;;;5.13;1.65;;;;;;;24.03;10.36;99509.28;5047318;28;20040;-70
2021/11/09 11:09:34;;;;;;;3.22;1.20;;;;;;;22.70;11.53;99519.78;5068452;28;20519;-69
2021/11/09 11:12:06;;;;;;;5.22;1.40;;;;;;;21.97;11.93;99507.81;5072845;28;20071;-69
2021/11/09 11:14:32;;;;;;;8.90;1.35;;;;;;;22.75;11.61;99533.44;5091584;28;20043;-70
2021/11/09 11:17:11;;;;;;;8.85;1.30;;;;;;;23.38;11.16;99538.78;5073634;28;20060;-69
2021/11/09 11:19:40;;;;;;;2.42;1.35;;;;;;;22.97;11.07;99550.66;5053178;28;20051;-69
2021/11/09 11:22:08;;;;;;;1.85;1.20;;;;;;;22.57;11.49;99554.41;5036385;28;20032;-68
2021/11/09 11:24:34;;;;;;;4.35;1.30;;;;;;;21.87;11.83;99558.94;5070641;28;20048;-68
2021/11/09 11:27:00;;;;;;;4.93;1.85;;;;;;;22.16;11.53;99566.13;5074903;28;20055;-68
2021/11/09 11:29:31;;;;;;;7.78;1.50;;;;;;;23.08;11.11;99579.63;5072632;28;20044;-68
2021/11/09 11:31:57;;;;;;;5.45;1.45;;;;;;;23.70;10.84;99590.59;5090477;28;20500;-68
2021/11/09 11:34:28;;;;;;;5.35;1.60;;;;;;;23.97;10.38;99570.78;5072650;28;20040;-69
2021/11/09 11:36:54;;;;;;;10.63;1.90;;;;;;;23.81;10.58;99601.41;5073330;28;20419;-68
2021/11/09 11:39:22;;;;;;;5.90;1.95;;;;;;;23.22;10.82;99599.13;5071700;28;20075;-68
2021/11/09 11:41:52;;;;;;;3.25;1.40;;;;;;;22.38;11.74;99612.38;5055619;28;20040;-68
2021/11/09 11:44:26;;;;;;;5.65;1.50;;;;;;;21.82;12.02;99607.47;5070220;28;20882;-68
2021/11/09 11:46:57;;;;;;;3.72;1.30;;;;;;;20.79;12.86;99605.03;5068737;28;20679;-68
2021/11/09 11:49:39;;;;;;;8.00;1.70;;;;;;;20.05;13.32;99629.31;5052750;28;20048;-68
2021/11/09 11:52:08;;;;;;;3.88;1.88;;;;;;;18.87;14.15;99625.53;5088154;28;20137;-68
2021/11/09 11:54:51;;;;;;;6.45;1.50;;;;;;;18.51;14.65;99638.66;5070037;28;20070;-67
2021/11/09 11:57:36;;;;;;;4.15;1.45;;;;;;;17.78;15.37;99642.31;5069279;28;20072;-68
2021/11/09 12:00:24;;;;;;;11.68;1.60;;;;;;;17.48;15.92;99652.56;5088117;28;20062;-68
2021/11/09 12:02:51;;;;;;;3.75;1.02;;;;;;;16.37;16.02;99662.63;5072285;28;20039;-68
2021/11/09 12:05:35;;;;;;;2.90;1.27;;;;;;;16.40;16.52;99667.63;5072231;28;20052;-67
2021/11/09 12:08:03;;;;;;;1.33;1.05;;;;;;;15.53;17.09;99680.56;5072320;28;20118;-69
2021/11/09 12:10:39;;;;;;;7.68;1.45;;;;;;;15.47;17.58;99684.78;5071935;28;20040;-69
2021/11/09 12:13:08;;;;;;;2.45;1.25;;;;;;;14.81;18.12;99690.25;5089791;28;20052;-69
2021/11/09 12:15:55;;;;;;;2.20;1.50;;;;;;;14.94;18.46;99701.16;5090732;28;20048;-68
2021/11/09 12:18:38;;;;;;;5.63;1.45;;;;;;;14.54;18.64;99701.56;5063306;28;20131;-69
2021/11/09 12:21:16;;;;;;;7.82;1.80;;;;;;;14.26;19.02;99717.34;5053297;28;20048;-69
2021/11/09 12:23:45;;;;;;;1.48;1.23;;;;;;;13.40;19.19;99726.53;5070563;28;20040;-69
2021/11/09 12:26:36;;;;;;;7.72;1.95;;;;;;;13.78;19.52;99730.19;5052460;28;20036;-69
2021/11/09 12:29:02;;;;;;;5.55;1.60;;;;;;;12.96;20.07;99731.50;5069728;28;20504;-69
2021/11/09 12:31:38;;;;;;;6.50;1.73;;;;;;;13.04;19.78;99704.00;5085281;28;20047;-68
2021/11/09 12:34:04;;;;;;;4.75;1.25;;;;;;;12.59;20.39;99747.22;5018750;28;20044;-68
2021/11/09 12:36:30;;;;;;;3.33;1.20;;;;;;;12.46;20.51;99741.59;5052176;28;20036;-68
2021/11/09 12:38:56;;;;;;;2.08;1.35;;;;;;;12.48;20.54;99760.06;5052273;28;20117;-70
2021/11/09 12:41:31;;;;;;;6.15;1.52;;;;;;;12.78;20.63;99762.88;5051798;28;20040;-68
2021/11/09 12:44:00;;;;;;;3.13;1.40;;;;;;;12.33;21.00;99765.22;5085769;28;20048;-69
2021/11/09 12:46:38;;;;;;;7.05;1.40;;;;;;;12.18;21.13;99752.75;5052014;28;20047;-69
2021/11/09 12:49:13;;;;;;;10.33;1.77;;;;;;;12.03;21.44;99771.19;5051492;28;20447;-68
2021/11/09 12:51:41;;;;;;;8.93;1.40;;;;;;;11.91;21.42;99785.81;5052280;28;20094;-68
2021/11/09 12:54:16;;;;;;;9.83;1.50;;;;;;;11.65;22.03;99761.94;5062262;28;20064;-68
2021/11/09 12:56:44;;;;;;;8.97;1.77;;;;;;;11.50;22.21;99790.13;5071179;28;20122;-68
2021/11/09 12:59:36;;;;;;;10.93;2.27;;;;;;;11.59;22.29;99798.97;5070684;28;20123;-68
2021/11/09 13:02:18;;;;;;;5.20;1.20;;;;;;;11.30;22.53;99801.19;5038529;28;20048;-67
2021/11/09 13:04:50;;;;;;;5.03;1.70;;;;;;;10.88;22.94;99785.16;5065560;28;20552;-67
2021/11/09 13:07:37;;;;;;;3.27;1.23;;;;;;;11.08;23.37;99801.69;5056631;28;20079;-68
2021/11/09 13:10:09;;;;;;;3.33;1.50;;;;;;;10.65;23.80;99797.28;5070681;28;20037;-68
2021/11/09 13:12:36;;;;;;;2.50;1.40;;;;;;;10.57;24.22;99820.25;5037433;28;20047;-68
2021/11/09 13:15:06;;;;;;;3.63;1.40;;;;;;;10.17;24.32;99834.84;5070860;28;20044;-68
2021/11/09 13:17:41;;;;;;;4.03;1.20;;;;;;;10.55;24.32;99819.59;5071032;28;20052;-68
2021/11/09 13:20:23;;;;;;;4.63;1.67;;;;;;;10.62;24.42;99834.75;5088569;28;20495;-68
2021/11/09 13:22:54;;;;;;;6.27;2.00;;;;;;;10.57;24.59;99837.03;5067149;28;20044;-68
2021/11/09 13:25:58;;;;;;;5.33;1.90;;;;;;;10.66;24.54;99835.28;5067820;28;20523;-68
2021/11/09 13:28:36;;;;;;;9.10;2.40;;;;;;;10.34;25.10;99851.75;5049912;28;20522;-69
2021/11/09 13:31:09;;;;;;;2.83;1.53;;;;;;;10.20;25.41;99845.16;5035491;28;20203;-67
2021/11/09 13:33:39;;;;;;;7.40;2.20;;;;;;;9.97;25.72;99832.44;5068937;28;20442;-69
2021/11/09 13:36:06;;;;;;;4.97;1.63;;;;;;;10.00;25.89;99858.66;5014015;28;20153;-69
2021/11/09 13:38:37;;;;;;;3.77;1.30;;;;;;;10.05;25.84;99856.41;5034217;28;20041;-67
2021/11/09 13:41:29;;;;;;;7.07;2.00;;;;;;;10.17;26.02;99871.16;5068514;28;20049;-67
2021/11/09 13:44:07;;;;;;;6.10;1.40;;;;;;;9.73;26.12;99882.56;5033907;28;20052;-67
2021/11/09 13:46:35;;;;;;;13.70;2.07;;;;;;;9.66;26.64;99889.41;5050323;28;20052;-67
2021/11/09 13:49:05;;;;;;;7.00;1.70;;;;;;;9.75;26.57;99886.72;5068524;28;20048;-68
2021/11/09 13:51:39;;;;;;;5.13;1.80;;;;;;;9.58;26.48;99857.50;5050569;28;20032;-66
2021/11/09 13:54:14;;;;;;;7.23;1.63;;;;;;;9.54;26.69;99899.38;5050839;28;20051;-66
2021/11/09 13:56:42;;;;;;;7.23;1.63;;;;;;;9.48;26.95;99909.72;5050478;28;20040;-65
2021/11/09 13:59:10;;;;;;;3.47;1.67;;;;;;;9.49;26.96;99912.22;5049161;28;20036;-68
2021/11/09 14:17:39;;;;;;;3.83;1.30;;;;;;;9.31;27.22;99969.63;5070289;28;20043;-67